sensor_id;sensor_type;location;lat;lon;timestamp;pressure;altitude;pressure_sealevel;temperature;humidity
55263;BME280;41125;48.752;9.168;2023-02-28T00:00:12;97474.06;;;-2.74;60.83
55263;BME280;41125;48.752;9.168;2023-02-28T00:00:44;97475.50;;;-2.78;61.01
55263;BME280;41125;48.752;9.168;2023-02-28T00:01:15;97484.84;;;-2.82;60.64
55263;BME280;41125;48.752;9.168;2023-02-28T00:01:46;97480.13;;;-2.87;60.66
55263;BME280;41125;48.752;9.168;2023-02-28T00:02:18;97481.13;;;-2.88;61.22
55263;BME280;41125;48.752;9.168;2023-02-28T00:02:49;97487.47;;;-2.89;61.44
55263;BME280;41125;48.752;9.168;2023-02-28T00:03:21;97487.47;;;-2.89;61.78
55263;BME280;41125;48.752;9.168;2023-02-28T00:03:52;97492.78;;;-2.89;62.48
55263;BME280;41125;48.752;9.168;2023-02-28T00:04:25;97494.41;;;-2.88;62.63
55263;BME280;41125;48.752;9.168;2023-02-28T00:04:56;97495.22;;;-2.87;62.26
55263;BME280;41125;48.752;9.168;2023-02-28T00:05:32;97489.09;;;-2.88;62.47
55263;BME280;41125;48.752;9.168;2023-02-28T00:06:05;97495.22;;;-2.87;61.92
55263;BME280;41125;48.752;9.168;2023-02-28T00:06:36;97484.63;;;-2.87;62.01
55263;BME280;41125;48.752;9.168;2023-02-28T00:07:09;97490.75;;;-2.87;61.96
55263;BME280;41125;48.752;9.168;2023-02-28T00:07:41;97485.44;;;-2.87;61.63
55263;BME280;41125;48.752;9.168;2023-02-28T00:08:13;97487.06;;;-2.86;61.50
55263;BME280;41125;48.752;9.168;2023-02-28T00:08:44;97483.59;;;-2.86;61.57
55263;BME280;41125;48.752;9.168;2023-02-28T00:09:15;97478.09;;;-2.85;61.52
55263;BME280;41125;48.752;9.168;2023-02-28T00:09:48;97478.09;;;-2.85;61.63
55263;BME280;41125;48.752;9.168;2023-02-28T00:10:22;97490.75;;;-2.87;61.48
55263;BME280;41125;48.752;9.168;2023-02-28T00:10:54;97478.47;;;-2.88;61.88
55263;BME280;41125;48.752;9.168;2023-02-28T00:11:25;97483.78;;;-2.88;61.57
55263;BME280;41125;48.752;9.168;2023-02-28T00:11:57;97481.75;;;-2.86;61.83
55263;BME280;41125;48.752;9.168;2023-02-28T00:12:29;97484.22;;;-2.84;61.56
55263;BME280;41125;48.752;9.168;2023-02-28T00:13:05;97471.97;;;-2.85;61.54
55263;BME280;41125;48.752;9.168;2023-02-28T00:13:40;97485.44;;;-2.87;61.32
55263;BME280;41125;48.752;9.168;2023-02-28T00:14:12;97480.50;;;-2.90;61.41
55263;BME280;41125;48.752;9.168;2023-02-28T00:14:43;97483.16;;;-2.90;61.77
55263;BME280;41125;48.752;9.168;2023-02-28T00:15:19;97485.81;;;-2.90;61.63
55263;BME280;41125;48.752;9.168;2023-02-28T00:15:59;97474.56;;;-2.92;61.34
55263;BME280;41125;48.752;9.168;2023-02-28T00:16:31;97475.19;;;-2.90;61.44
55263;BME280;41125;48.752;9.168;2023-02-28T00:17:02;97478.47;;;-2.88;61.07
55263;BME280;41125;48.752;9.168;2023-02-28T00:17:37;97472.34;;;-2.88;61.06
55263;BME280;41125;48.752;9.168;2023-02-28T00:18:10;97476.84;;;-2.89;61.71
55263;BME280;41125;48.752;9.168;2023-02-28T00:18:42;97482.16;;;-2.89;61.96
55263;BME280;41125;48.752;9.168;2023-02-28T00:19:13;97485.81;;;-2.90;62.20
55263;BME280;41125;48.752;9.168;2023-02-28T00:19:45;97486.19;;;-2.93;62.62
55263;BME280;41125;48.752;9.168;2023-02-28T00:20:16;97484.56;;;-2.94;62.81
55263;BME280;41125;48.752;9.168;2023-02-28T00:20:51;97488.22;;;-2.95;62.85
55263;BME280;41125;48.752;9.168;2023-02-28T00:21:22;97491.91;;;-2.96;63.22
55263;BME280;41125;48.752;9.168;2023-02-28T00:21:53;97485.75;;;-2.96;63.23
55263;BME280;41125;48.752;9.168;2023-02-28T00:22:24;97491.91;;;-2.96;62.72
55263;BME280;41125;48.752;9.168;2023-02-28T00:22:56;97484.94;;;-2.97;62.48
55263;BME280;41125;48.752;9.168;2023-02-28T00:23:28;97482.28;;;-2.97;62.10
55263;BME280;41125;48.752;9.168;2023-02-28T00:23:59;97487.41;;;-2.95;62.05
55263;BME280;41125;48.752;9.168;2023-02-28T00:24:31;97483.28;;;-2.98;61.93
55263;BME280;41125;48.752;9.168;2023-02-28T00:25:04;97483.28;;;-2.98;62.30
55263;BME280;41125;48.752;9.168;2023-02-28T00:25:38;97478.00;;;-2.98;62.31
55263;BME280;41125;48.752;9.168;2023-02-28T00:26:10;97484.94;;;-2.97;62.66
55263;BME280;41125;48.752;9.168;2023-02-28T00:26:41;97487.59;;;-2.97;63.25
55263;BME280;41125;48.752;9.168;2023-02-28T00:27:13;97487.59;;;-2.97;62.93
55263;BME280;41125;48.752;9.168;2023-02-28T00:27:48;97494.56;;;-2.96;62.86
55263;BME280;41125;48.752;9.168;2023-02-28T00:28:20;97477.78;;;-2.96;62.71
55263;BME280;41125;48.752;9.168;2023-02-28T00:28:53;97491.06;;;-2.96;62.90
55263;BME280;41125;48.752;9.168;2023-02-28T00:29:25;97488.59;;;-2.98;63.44
55263;BME280;41125;48.752;9.168;2023-02-28T00:29:56;97493.09;;;-2.98;63.46
55263;BME280;41125;48.752;9.168;2023-02-28T00:30:28;97488.16;;;-3.01;63.37
55263;BME280;41125;48.752;9.168;2023-02-28T00:31:03;97481.41;;;-3.04;63.33
55263;BME280;41125;48.752;9.168;2023-02-28T00:31:35;97485.72;;;-3.03;62.88
55263;BME280;41125;48.752;9.168;2023-02-28T00:32:06;97485.72;;;-3.03;62.57
55263;BME280;41125;48.752;9.168;2023-02-28T00:32:38;97487.34;;;-3.02;62.47
55263;BME280;41125;48.752;9.168;2023-02-28T00:33:10;97481.03;;;-3.01;62.74
55263;BME280;41125;48.752;9.168;2023-02-28T00:33:41;97485.72;;;-3.03;62.82
55263;BME280;41125;48.752;9.168;2023-02-28T00:34:12;97490.56;;;-3.07;62.79
55263;BME280;41125;48.752;9.168;2023-02-28T00:34:44;97487.47;;;-3.10;62.90
55263;BME280;41125;48.752;9.168;2023-02-28T00:35:16;97489.53;;;-3.12;62.97
55263;BME280;41125;48.752;9.168;2023-02-28T00:35:48;97482.38;;;-3.12;63.07
55263;BME280;41125;48.752;9.168;2023-02-28T00:36:19;97489.53;;;-3.12;63.00
55263;BME280;41125;48.752;9.168;2023-02-28T00:36:50;97486.47;;;-3.09;62.70
55263;BME280;41125;48.752;9.168;2023-02-28T00:37:22;97485.66;;;-3.10;63.42
55263;BME280;41125;48.752;9.168;2023-02-28T00:37:53;97488.50;;;-3.11;63.61
55263;BME280;41125;48.752;9.168;2023-02-28T00:38:25;97490.12;;;-3.10;63.27
55263;BME280;41125;48.752;9.168;2023-02-28T00:38:56;97488.13;;;-3.08;63.47
55263;BME280;41125;48.752;9.168;2023-02-28T00:39:27;97494.25;;;-3.08;63.51
55263;BME280;41125;48.752;9.168;2023-02-28T00:39:59;97488.31;;;-3.10;63.42
55263;BME280;41125;48.752;9.168;2023-02-28T00:40:30;97490.12;;;-3.10;63.56
55263;BME280;41125;48.752;9.168;2023-02-28T00:41:03;97489.31;;;-3.11;63.25
55263;BME280;41125;48.752;9.168;2023-02-28T00:41:35;97478.69;;;-3.11;63.25
55263;BME280;41125;48.752;9.168;2023-02-28T00:42:08;97490.12;;;-3.10;63.53
55263;BME280;41125;48.752;9.168;2023-02-28T00:42:40;97486.66;;;-3.11;63.72
55263;BME280;41125;48.752;9.168;2023-02-28T00:43:11;97490.97;;;-3.10;63.66
55263;BME280;41125;48.752;9.168;2023-02-28T00:43:42;97492.78;;;-3.10;63.24
55263;BME280;41125;48.752;9.168;2023-02-28T00:44:14;97485.03;;;-3.12;63.33
55263;BME280;41125;48.752;9.168;2023-02-28T00:44:45;97484.81;;;-3.10;63.22
55263;BME280;41125;48.752;9.168;2023-02-28T00:45:17;97489.75;;;-3.07;63.24
55263;BME280;41125;48.752;9.168;2023-02-28T00:45:48;97486.09;;;-3.06;63.13
55263;BME280;41125;48.752;9.168;2023-02-28T00:46:19;97490.56;;;-3.07;63.48
55263;BME280;41125;48.752;9.168;2023-02-28T00:46:51;97493.41;;;-3.08;64.49
55263;BME280;41125;48.752;9.168;2023-02-28T00:47:25;97489.53;;;-3.12;64.48
55263;BME280;41125;48.752;9.168;2023-02-28T00:47:56;97488.91;;;-3.14;63.99
55263;BME280;41125;48.752;9.168;2023-02-28T00:48:28;97495.22;;;-3.15;63.81
55263;BME280;41125;48.752;9.168;2023-02-28T00:49:00;97493.41;;;-3.15;63.94
55263;BME280;41125;48.752;9.168;2023-02-28T00:49:33;97485.66;;;-3.10;63.49
55263;BME280;41125;48.752;9.168;2023-02-28T00:50:10;97483.63;;;-3.08;63.11
55263;BME280;41125;48.752;9.168;2023-02-28T00:50:42;97495.44;;;-3.10;63.37
55263;BME280;41125;48.752;9.168;2023-02-28T00:51:13;97483.19;;;-3.11;63.60
55263;BME280;41125;48.752;9.168;2023-02-28T00:51:44;97481.56;;;-3.12;63.40
55263;BME280;41125;48.752;9.168;2023-02-28T00:52:22;97482.78;;;-3.15;63.89
55263;BME280;41125;48.752;9.168;2023-02-28T00:52:53;97489.28;;;-3.17;64.10
55263;BME280;41125;48.752;9.168;2023-02-28T00:53:25;97494.78;;;-3.19;64.46
55263;BME280;41125;48.752;9.168;2023-02-28T00:53:56;97492.13;;;-3.19;64.72
55263;BME280;41125;48.752;9.168;2023-02-28T00:54:28;97494.97;;;-3.20;64.71
55263;BME280;41125;48.752;9.168;2023-02-28T00:54:59;97488.47;;;-3.18;64.46
55263;BME280;41125;48.752;9.168;2023-02-28T00:55:30;97489.47;;;-3.19;64.09
55263;BME280;41125;48.752;9.168;2023-02-28T00:56:02;97491.69;;;-3.22;63.55
55263;BME280;41125;48.752;9.168;2023-02-28T00:56:34;97490.03;;;-3.23;63.64
55263;BME280;41125;48.752;9.168;2023-02-28T00:57:06;97488.41;;;-3.24;63.72
55263;BME280;41125;48.752;9.168;2023-02-28T00:57:37;97486.37;;;-3.22;63.61
55263;BME280;41125;48.752;9.168;2023-02-28T00:58:08;97482.72;;;-3.21;63.35
55263;BME280;41125;48.752;9.168;2023-02-28T00:58:39;97484.34;;;-3.20;63.67
55263;BME280;41125;48.752;9.168;2023-02-28T00:59:12;97491.31;;;-3.19;63.62
55263;BME280;41125;48.752;9.168;2023-02-28T00:59:43;97482.72;;;-3.21;63.56
55263;BME280;41125;48.752;9.168;2023-02-28T01:00:15;97477.41;;;-3.21;63.29
55263;BME280;41125;48.752;9.168;2023-02-28T01:00:48;97486.00;;;-3.19;63.42
55263;BME280;41125;48.752;9.168;2023-02-28T01:01:20;97482.34;;;-3.18;63.33
55263;BME280;41125;48.752;9.168;2023-02-28T01:01:51;97489.28;;;-3.17;63.81
55263;BME280;41125;48.752;9.168;2023-02-28T01:02:23;97489.28;;;-3.17;63.56
55263;BME280;41125;48.752;9.168;2023-02-28T01:02:54;97483.16;;;-3.18;63.56
55263;BME280;41125;48.752;9.168;2023-02-28T01:03:25;97483.97;;;-3.17;63.73
55263;BME280;41125;48.752;9.168;2023-02-28T01:03:57;97485.81;;;-3.18;64.27
55263;BME280;41125;48.752;9.168;2023-02-28T01:04:28;97494.59;;;-3.17;64.04
55263;BME280;41125;48.752;9.168;2023-02-28T01:04:59;97483.97;;;-3.17;64.26
55263;BME280;41125;48.752;9.168;2023-02-28T01:05:30;97485.63;;;-3.16;64.10
55263;BME280;41125;48.752;9.168;2023-02-28T01:06:02;97480.31;;;-3.16;63.69
55263;BME280;41125;48.752;9.168;2023-02-28T01:06:35;97480.31;;;-3.16;63.60
55263;BME280;41125;48.752;9.168;2023-02-28T01:07:07;97481.13;;;-3.16;63.38
55263;BME280;41125;48.752;9.168;2023-02-28T01:07:38;97476.66;;;-3.15;63.12
55263;BME280;41125;48.752;9.168;2023-02-28T01:08:10;97478.28;;;-3.14;63.28
55263;BME280;41125;48.752;9.168;2023-02-28T01:08:41;97486.25;;;-3.14;63.42
55263;BME280;41125;48.752;9.168;2023-02-28T01:09:12;97478.28;;;-3.14;63.46
55263;BME280;41125;48.752;9.168;2023-02-28T01:09:43;97483.59;;;-3.14;63.62
55263;BME280;41125;48.752;9.168;2023-02-28T01:10:16;97483.59;;;-3.14;63.84
55263;BME280;41125;48.752;9.168;2023-02-28T01:10:49;97493.41;;;-3.15;64.18
55263;BME280;41125;48.752;9.168;2023-02-28T01:11:21;97480.31;;;-3.16;64.31
55263;BME280;41125;48.752;9.168;2023-02-28T01:11:52;97486.63;;;-3.17;65.09
55263;BME280;41125;48.752;9.168;2023-02-28T01:12:23;97481.31;;;-3.17;64.91
55263;BME280;41125;48.752;9.168;2023-02-28T01:12:54;97483.97;;;-3.17;64.87
55263;BME280;41125;48.752;9.168;2023-02-28T01:13:26;97486.00;;;-3.19;65.21
55263;BME280;41125;48.752;9.168;2023-02-28T01:13:57;97479.69;;;-3.18;64.98
55263;BME280;41125;48.752;9.168;2023-02-28T01:14:29;97486.63;;;-3.17;65.55
55263;BME280;41125;48.752;9.168;2023-02-28T01:15:00;97491.31;;;-3.19;65.74
55263;BME280;41125;48.752;9.168;2023-02-28T01:15:32;97481.50;;;-3.19;65.81
55263;BME280;41125;48.752;9.168;2023-02-28T01:16:04;97487.00;;;-3.20;65.95
55263;BME280;41125;48.752;9.168;2023-02-28T01:16:36;97495.16;;;-3.22;66.19
55263;BME280;41125;48.752;9.168;2023-02-28T01:17:07;97478.78;;;-3.25;65.77
55263;BME280;41125;48.752;9.168;2023-02-28T01:17:39;97490.03;;;-3.23;65.68
55263;BME280;41125;48.752;9.168;2023-02-28T01:18:10;97482.09;;;-3.23;65.20
55263;BME280;41125;48.752;9.168;2023-02-28T01:18:41;97487.41;;;-3.23;65.28
55263;BME280;41125;48.752;9.168;2023-02-28T01:19:13;97488.41;;;-3.24;64.92
55263;BME280;41125;48.752;9.168;2023-02-28T01:19:44;97481.84;;;-3.28;64.78
55263;BME280;41125;48.752;9.168;2023-02-28T01:20:17;97484.28;;;-3.27;64.49
55263;BME280;41125;48.752;9.168;2023-02-28T01:20:49;97480.44;;;-3.24;64.45
55263;BME280;41125;48.752;9.168;2023-02-28T01:21:23;97475.91;;;-3.30;64.58
55263;BME280;41125;48.752;9.168;2023-02-28T01:21:55;97474.50;;;-3.26;64.30
55263;BME280;41125;48.752;9.168;2023-02-28T01:22:27;97481.44;;;-3.25;64.41
55263;BME280;41125;48.752;9.168;2023-02-28T01:23:02;97477.78;;;-3.24;64.35
55263;BME280;41125;48.752;9.168;2023-02-28T01:23:33;97479.44;;;-3.23;64.72
55263;BME280;41125;48.752;9.168;2023-02-28T01:24:07;97476.97;;;-3.25;64.82
55263;BME280;41125;48.752;9.168;2023-02-28T01:24:38;97480.63;;;-3.26;64.81
55263;BME280;41125;48.752;9.168;2023-02-28T01:25:10;97483.09;;;-3.24;65.68
55263;BME280;41125;48.752;9.168;2023-02-28T01:25:41;97489.41;;;-3.25;66.44
55263;BME280;41125;48.752;9.168;2023-02-28T01:26:20;97490.44;;;-3.26;66.25
55263;BME280;41125;48.752;9.168;2023-02-28T01:26:52;97485.13;;;-3.26;65.43
55263;BME280;41125;48.752;9.168;2023-02-28T01:27:23;97485.13;;;-3.26;65.22
55263;BME280;41125;48.752;9.168;2023-02-28T01:27:56;97481.84;;;-3.28;65.64
55263;BME280;41125;48.752;9.168;2023-02-28T01:28:27;97483.47;;;-3.27;65.23
55263;BME280;41125;48.752;9.168;2023-02-28T01:29:00;97483.47;;;-3.27;66.07
55263;BME280;41125;48.752;9.168;2023-02-28T01:29:31;97492.44;;;-3.28;66.20
55263;BME280;41125;48.752;9.168;2023-02-28T01:30:03;97482.84;;;-3.29;66.54
55263;BME280;41125;48.752;9.168;2023-02-28T01:30:35;97484.69;;;-3.30;66.08
55263;BME280;41125;48.752;9.168;2023-02-28T01:31:07;97494.47;;;-3.30;66.35
55263;BME280;41125;48.752;9.168;2023-02-28T01:31:39;97479.75;;;-3.33;66.12
55263;BME280;41125;48.752;9.168;2023-02-28T01:32:11;97486.25;;;-3.35;66.68
55263;BME280;41125;48.752;9.168;2023-02-28T01:32:42;97481.31;;;-3.39;66.50
55263;BME280;41125;48.752;9.168;2023-02-28T01:33:13;97488.28;;;-3.38;66.72
55263;BME280;41125;48.752;9.168;2023-02-28T01:33:45;97485.63;;;-3.38;66.74
55263;BME280;41125;48.752;9.168;2023-02-28T01:34:16;97482.97;;;-3.38;66.84
55263;BME280;41125;48.752;9.168;2023-02-28T01:34:52;97488.28;;;-3.38;66.81
55263;BME280;41125;48.752;9.168;2023-02-28T01:35:23;97485.63;;;-3.38;66.90
55263;BME280;41125;48.752;9.168;2023-02-28T01:36:00;97484.63;;;-3.37;67.14
55263;BME280;41125;48.752;9.168;2023-02-28T01:36:31;97487.06;;;-3.35;67.14
55263;BME280;41125;48.752;9.168;2023-02-28T01:37:06;97492.38;;;-3.35;67.60
55263;BME280;41125;48.752;9.168;2023-02-28T01:37:38;97488.28;;;-3.38;67.64
55263;BME280;41125;48.752;9.168;2023-02-28T01:38:09;97489.28;;;-3.39;67.32
55263;BME280;41125;48.752;9.168;2023-02-28T01:38:40;97488.28;;;-3.38;67.34
55263;BME280;41125;48.752;9.168;2023-02-28T01:39:12;97488.28;;;-3.38;66.93
55263;BME280;41125;48.752;9.168;2023-02-28T01:39:43;97489.91;;;-3.37;67.05
55263;BME280;41125;48.752;9.168;2023-02-28T01:40:15;97484.81;;;-3.38;66.58
55263;BME280;41125;48.752;9.168;2023-02-28T01:40:48;97485.63;;;-3.38;66.68
55263;BME280;41125;48.752;9.168;2023-02-28T01:41:31;97486.88;;;-3.33;65.88
55263;BME280;41125;48.752;9.168;2023-02-28T01:42:03;97488.53;;;-3.32;65.95
55263;BME280;41125;48.752;9.168;2023-02-28T01:42:34;97482.22;;;-3.31;65.64
55263;BME280;41125;48.752;9.168;2023-02-28T01:43:24;97479.19;;;-3.28;65.60
55263;BME280;41125;48.752;9.168;2023-02-28T01:45:01;97480.56;;;-3.32;65.89
55263;BME280;41125;48.752;9.168;2023-02-28T01:45:35;97477.72;;;-3.31;65.25
55263;BME280;41125;48.752;9.168;2023-02-28T01:46:06;97481.84;;;-3.28;65.29
55263;BME280;41125;48.752;9.168;2023-02-28T01:46:38;97481.84;;;-3.28;65.63
55263;BME280;41125;48.752;9.168;2023-02-28T01:47:09;97481.84;;;-3.28;65.93
55263;BME280;41125;48.752;9.168;2023-02-28T01:47:42;97483.84;;;-3.30;66.05
55263;BME280;41125;48.752;9.168;2023-02-28T01:48:15;97483.03;;;-3.31;66.68
55263;BME280;41125;48.752;9.168;2023-02-28T01:48:52;97490.16;;;-3.31;67.07
55263;BME280;41125;48.752;9.168;2023-02-28T01:49:25;97486.25;;;-3.35;66.98
55263;BME280;41125;48.752;9.168;2023-02-28T01:49:57;97487.25;;;-3.37;66.90
55263;BME280;41125;48.752;9.168;2023-02-28T01:50:33;97483.78;;;-3.37;67.14
55263;BME280;41125;48.752;9.168;2023-02-28T01:51:10;97484.63;;;-3.37;66.89
55263;BME280;41125;48.752;9.168;2023-02-28T01:51:45;97485.63;;;-3.38;67.40
55263;BME280;41125;48.752;9.168;2023-02-28T01:52:23;97484.63;;;-3.37;66.89
55263;BME280;41125;48.752;9.168;2023-02-28T01:52:58;97486.25;;;-3.35;67.25
55263;BME280;41125;48.752;9.168;2023-02-28T01:53:39;97479.69;;;-3.40;67.19
55263;BME280;41125;48.752;9.168;2023-02-28T01:54:16;97487.00;;;-3.42;67.69
55263;BME280;41125;48.752;9.168;2023-02-28T01:54:58;97479.25;;;-3.43;67.32
55263;BME280;41125;48.752;9.168;2023-02-28T01:55:32;97477.59;;;-3.44;67.52
55263;BME280;41125;48.752;9.168;2023-02-28T01:56:06;97480.44;;;-3.46;67.56
55263;BME280;41125;48.752;9.168;2023-02-28T01:56:43;97475.94;;;-3.45;67.46
55263;BME280;41125;48.752;9.168;2023-02-28T01:57:21;97478.41;;;-3.44;67.31
55263;BME280;41125;48.752;9.168;2023-02-28T01:57:58;97485.37;;;-3.43;67.69
55263;BME280;41125;48.752;9.168;2023-02-28T01:58:30;97474.75;;;-3.43;67.58
55263;BME280;41125;48.752;9.168;2023-02-28T01:59:02;97469.81;;;-3.46;67.62
55263;BME280;41125;48.752;9.168;2023-02-28T01:59:44;97478.81;;;-3.47;67.22
55263;BME280;41125;48.752;9.168;2023-02-28T02:00:20;97469.81;;;-3.46;67.28
55263;BME280;41125;48.752;9.168;2023-02-28T02:00:52;97471.47;;;-3.45;67.45
55263;BME280;41125;48.752;9.168;2023-02-28T02:01:25;97474.31;;;-3.46;67.51
55263;BME280;41125;48.752;9.168;2023-02-28T02:01:57;97469.22;;;-3.48;67.24
55263;BME280;41125;48.752;9.168;2023-02-28T02:02:29;97466.56;;;-3.48;67.42
55263;BME280;41125;48.752;9.168;2023-02-28T02:03:07;97459.22;;;-3.46;66.95
55263;BME280;41125;48.752;9.168;2023-02-28T02:03:39;97461.69;;;-3.44;67.31
55263;BME280;41125;48.752;9.168;2023-02-28T02:04:11;97468.81;;;-3.45;67.34
55263;BME280;41125;48.752;9.168;2023-02-28T02:04:58;97462.50;;;-3.44;67.59
55263;BME280;41125;48.752;9.168;2023-02-28T02:05:36;97463.31;;;-3.43;67.55
55263;BME280;41125;48.752;9.168;2023-02-28T02:06:08;97464.16;;;-3.43;68.11
55263;BME280;41125;48.752;9.168;2023-02-28T02:06:43;97463.31;;;-3.43;68.19
55263;BME280;41125;48.752;9.168;2023-02-28T02:07:16;97469.63;;;-3.44;67.88
55263;BME280;41125;48.752;9.168;2023-02-28T02:07:54;97466.78;;;-3.43;68.27
55263;BME280;41125;48.752;9.168;2023-02-28T02:08:28;97462.50;;;-3.44;68.43
55263;BME280;41125;48.752;9.168;2023-02-28T02:09:00;97472.28;;;-3.44;68.84
55263;BME280;41125;48.752;9.168;2023-02-28T02:09:31;97468.63;;;-3.43;69.16
55263;BME280;41125;48.752;9.168;2023-02-28T02:10:12;97478.41;;;-3.44;69.44
55263;BME280;41125;48.752;9.168;2023-02-28T02:11:00;97478.41;;;-3.44;70.16
55263;BME280;41125;48.752;9.168;2023-02-28T02:11:34;97475.94;;;-3.45;69.87
55263;BME280;41125;48.752;9.168;2023-02-28T02:12:19;97473.53;;;-3.47;70.14
55263;BME280;41125;48.752;9.168;2023-02-28T02:14:37;97471.44;;;-3.51;69.63
55263;BME280;41125;48.752;9.168;2023-02-28T02:15:16;97468.59;;;-3.50;69.23
55263;BME280;41125;48.752;9.168;2023-02-28T02:18:28;97467.41;;;-3.47;70.27
55263;BME280;41125;48.752;9.168;2023-02-28T02:20:49;97463.28;;;-3.50;69.97
55263;BME280;41125;48.752;9.168;2023-02-28T02:25:23;97452.28;;;-3.47;69.01
55263;BME280;41125;48.752;9.168;2023-02-28T02:27:54;97445.34;;;-3.48;68.47
55263;BME280;41125;48.752;9.168;2023-02-28T02:29:07;97442.91;;;-3.43;68.34
55263;BME280;41125;48.752;9.168;2023-02-28T02:31:18;97448.03;;;-3.41;68.92
55263;BME280;41125;48.752;9.168;2023-02-28T02:36:22;97446.38;;;-3.42;68.96
55263;BME280;41125;48.752;9.168;2023-02-28T02:38:42;97449.41;;;-3.45;69.73
55263;BME280;41125;48.752;9.168;2023-02-28T02:39:51;97447.37;;;-3.50;69.82
55263;BME280;41125;48.752;9.168;2023-02-28T02:40:32;97444.91;;;-3.51;69.82
55263;BME280;41125;48.752;9.168;2023-02-28T02:42:31;97448.19;;;-3.49;69.97
55263;BME280;41125;48.752;9.168;2023-02-28T02:43:28;97439.22;;;-3.48;70.08
55263;BME280;41125;48.752;9.168;2023-02-28T02:44:07;97449.00;;;-3.49;70.49
55263;BME280;41125;48.752;9.168;2023-02-28T02:45:27;97448.59;;;-3.46;70.80
55263;BME280;41125;48.752;9.168;2023-02-28T02:46:29;97444.34;;;-3.47;70.33
55263;BME280;41125;48.752;9.168;2023-02-28T02:47:12;97450.84;;;-3.49;70.24
55263;BME280;41125;48.752;9.168;2023-02-28T02:47:45;97449.38;;;-3.52;70.66
55263;BME280;41125;48.752;9.168;2023-02-28T02:48:19;97446.75;;;-3.52;70.55
55263;BME280;41125;48.752;9.168;2023-02-28T02:48:53;97448.37;;;-3.51;70.55
55263;BME280;41125;48.752;9.168;2023-02-28T02:49:30;97444.91;;;-3.51;70.31
55263;BME280;41125;48.752;9.168;2023-02-28T02:50:06;97444.72;;;-3.50;69.95
55263;BME280;41125;48.752;9.168;2023-02-28T02:50:57;97438.88;;;-3.39;69.47
55263;BME280;41125;48.752;9.168;2023-02-28T02:51:32;97444.62;;;-3.35;69.11
55263;BME280;41125;48.752;9.168;2023-02-28T02:52:07;97440.13;;;-3.34;69.47
55263;BME280;41125;48.752;9.168;2023-02-28T02:52:44;97437.66;;;-3.36;69.82
55263;BME280;41125;48.752;9.168;2023-02-28T02:53:21;97438.88;;;-3.39;69.94
55263;BME280;41125;48.752;9.168;2023-02-28T02:53:59;97444.19;;;-3.39;69.49
55263;BME280;41125;48.752;9.168;2023-02-28T02:54:34;97444.19;;;-3.39;69.70
55263;BME280;41125;48.752;9.168;2023-02-28T02:55:08;97442.53;;;-3.40;69.64
55263;BME280;41125;48.752;9.168;2023-02-28T02:55:44;97447.03;;;-3.40;69.63
55263;BME280;41125;48.752;9.168;2023-02-28T02:56:21;97439.87;;;-3.40;70.10
55263;BME280;41125;48.752;9.168;2023-02-28T02:56:59;97442.34;;;-3.38;70.22
55263;BME280;41125;48.752;9.168;2023-02-28T02:57:41;97448.47;;;-3.38;70.20
55263;BME280;41125;48.752;9.168;2023-02-28T02:58:16;97439.69;;;-3.38;69.58
55263;BME280;41125;48.752;9.168;2023-02-28T02:58:53;97440.50;;;-3.38;69.95
55263;BME280;41125;48.752;9.168;2023-02-28T02:59:28;97436.84;;;-3.37;69.94
55263;BME280;41125;48.752;9.168;2023-02-28T03:00:01;97440.13;;;-3.34;70.14
55263;BME280;41125;48.752;9.168;2023-02-28T03:00:41;97443.16;;;-3.38;70.06
55263;BME280;41125;48.752;9.168;2023-02-28T03:01:22;97446.84;;;-3.39;70.21
55263;BME280;41125;48.752;9.168;2023-02-28T03:02:06;97446.84;;;-3.39;70.62
55263;BME280;41125;48.752;9.168;2023-02-28T03:02:39;97449.09;;;-3.35;70.38
55263;BME280;41125;48.752;9.168;2023-02-28T03:03:12;97453.41;;;-3.34;71.39
55263;BME280;41125;48.752;9.168;2023-02-28T03:03:45;97459.09;;;-3.38;71.31
55263;BME280;41125;48.752;9.168;2023-02-28T03:04:19;97445.00;;;-3.38;71.03
55263;BME280;41125;48.752;9.168;2023-02-28T03:04:56;97441.53;;;-3.39;71.06
55263;BME280;41125;48.752;9.168;2023-02-28T03:05:41;97447.84;;;-3.40;70.19
55263;BME280;41125;48.752;9.168;2023-02-28T03:06:14;97443.53;;;-3.41;70.55
55263;BME280;41125;48.752;9.168;2023-02-28T03:06:47;97445.38;;;-3.41;70.55
55263;BME280;41125;48.752;9.168;2023-02-28T03:07:18;97442.53;;;-3.40;70.62
55263;BME280;41125;48.752;9.168;2023-02-28T03:07:49;97448.66;;;-3.39;70.98
55263;BME280;41125;48.752;9.168;2023-02-28T03:08:24;97447.22;;;-3.42;70.87
55263;BME280;41125;48.752;9.168;2023-02-28T03:08:56;97444.56;;;-3.42;71.07
55263;BME280;41125;48.752;9.168;2023-02-28T03:09:29;97450.50;;;-3.40;71.05
55263;BME280;41125;48.752;9.168;2023-02-28T03:10:31;97444.19;;;-3.39;71.42
55263;BME280;41125;48.752;9.168;2023-02-28T03:11:09;97454.41;;;-3.35;71.51
55263;BME280;41125;48.752;9.168;2023-02-28T03:11:44;97449.09;;;-3.35;71.76
55263;BME280;41125;48.752;9.168;2023-02-28T03:12:15;97454.03;;;-3.32;71.60
55263;BME280;41125;48.752;9.168;2023-02-28T03:12:55;97447.72;;;-3.31;71.04
55263;BME280;41125;48.752;9.168;2023-02-28T03:15:12;97452.00;;;-3.30;71.18
55263;BME280;41125;48.752;9.168;2023-02-28T03:17:50;97438.69;;;-3.09;69.52
55263;BME280;41125;48.752;9.168;2023-02-28T03:18:51;97440.50;;;-3.16;69.93
55263;BME280;41125;48.752;9.168;2023-02-28T03:22:28;97443.53;;;-3.19;69.83
55263;BME280;41125;48.752;9.168;2023-02-28T03:23:27;97447.59;;;-3.23;70.29
55263;BME280;41125;48.752;9.168;2023-02-28T03:24:07;97453.28;;;-3.26;70.45
55263;BME280;41125;48.752;9.168;2023-02-28T03:26:02;97445.31;;;-3.26;70.81
55263;BME280;41125;48.752;9.168;2023-02-28T03:26:39;97448.16;;;-3.28;70.53
55263;BME280;41125;48.752;9.168;2023-02-28T03:27:25;97449.16;;;-3.29;71.05
55263;BME280;41125;48.752;9.168;2023-02-28T03:28:15;97451.81;;;-3.29;70.86
55263;BME280;41125;48.752;9.168;2023-02-28T03:29:37;97459.34;;;-3.32;71.13
55263;BME280;41125;48.752;9.168;2023-02-28T03:30:26;97458.97;;;-3.29;70.90
55263;BME280;41125;48.752;9.168;2023-02-28T03:31:41;97452.88;;;-3.23;70.46
55263;BME280;41125;48.752;9.168;2023-02-28T03:32:28;97445.56;;;-3.21;70.38
55263;BME280;41125;48.752;9.168;2023-02-28T03:33:35;97450.63;;;-3.26;71.62
55263;BME280;41125;48.752;9.168;2023-02-28T03:34:24;97453.66;;;-3.29;71.52
55263;BME280;41125;48.752;9.168;2023-02-28T03:35:08;97448.34;;;-3.29;72.04
55263;BME280;41125;48.752;9.168;2023-02-28T03:35:47;97450.38;;;-3.31;72.41